sensor_id;sensor_type;location;lat;lon;timestamp;pressure;altitude;pressure_sealevel;temperature;humidity
39363;BME280;25088;43.238;23.110;2022-07-05T00:00:36;96519.78;;;23.41;80.66
39363;BME280;25088;43.238;23.110;2022-07-05T00:03:02;96524.34;;;23.46;80.88
39363;BME280;25088;43.238;23.110;2022-07-05T00:05:27;96506.75;;;23.33;81.58
39363;BME280;25088;43.238;23.110;2022-07-05T00:07:53;96502.03;;;23.46;80.91
39363;BME280;25088;43.238;23.110;2022-07-05T00:10:18;96508.22;;;23.52;80.99
39363;BME280;25088;43.238;23.110;2022-07-05T00:12:44;96494.28;;;23.52;80.38
39363;BME280;25088;43.238;23.110;2022-07-05T00:15:09;96478.34;;;23.40;80.89
39363;BME280;25088;43.238;23.110;2022-07-05T00:17:35;96484.06;;;23.43;80.93
39363;BME280;25088;43.238;23.110;2022-07-05T00:20:01;96478.19;;;23.36;81.24
39363;BME280;25088;43.238;23.110;2022-07-05T00:22:26;96484.09;;;23.35;81.82
39363;BME280;25088;43.238;23.110;2022-07-05T00:24:52;96470.84;;;23.32;81.63
39363;BME280;25088;43.238;23.110;2022-07-05T00:27:17;96465.47;;;23.27;82.29
39363;BME280;25088;43.238;23.110;2022-07-05T00:29:43;96476.66;;;23.47;82.30
39363;BME280;25088;43.238;23.110;2022-07-05T00:32:09;96455.44;;;23.34;82.38
39363;BME280;25088;43.238;23.110;2022-07-05T00:34:35;96480.91;;;23.45;82.72
39363;BME280;25088;43.238;23.110;2022-07-05T00:37:00;96450.63;;;23.23;82.38
39363;BME280;25088;43.238;23.110;2022-07-05T00:39:26;96468.81;;;23.41;82.21
39363;BME280;25088;43.238;23.110;2022-07-05T00:41:52;96468.06;;;23.32;82.73
39363;BME280;25088;43.238;23.110;2022-07-05T00:44:37;96474.59;;;23.36;82.83
39363;BME280;25088;43.238;23.110;2022-07-05T00:47:04;96471.53;;;23.29;82.86
39363;BME280;25088;43.238;23.110;2022-07-05T00:49:31;96458.53;;;23.12;82.22
39363;BME280;25088;43.238;23.110;2022-07-05T00:51:57;96470.44;;;23.21;83.05
39363;BME280;25088;43.238;23.110;2022-07-05T00:54:23;96471.59;;;22.99;83.22
39363;BME280;25088;43.238;23.110;2022-07-05T00:56:49;96469.69;;;23.12;82.31
39363;BME280;25088;43.238;23.110;2022-07-05T00:59:14;96472.63;;;23.15;81.53
39363;BME280;25088;43.238;23.110;2022-07-05T01:01:40;96462.03;;;23.09;81.30
39363;BME280;25088;43.238;23.110;2022-07-05T01:04:05;96467.03;;;23.15;80.33
39363;BME280;25088;43.238;23.110;2022-07-05T01:06:31;96444.09;;;23.18;79.58
39363;BME280;25088;43.238;23.110;2022-07-05T01:08:57;96468.47;;;23.21;79.47
39363;BME280;25088;43.238;23.110;2022-07-05T01:11:24;96463.84;;;23.26;79.02
39363;BME280;25088;43.238;23.110;2022-07-05T01:13:49;96453.19;;;23.07;79.38
39363;BME280;25088;43.238;23.110;2022-07-05T01:16:15;96466.03;;;23.20;79.37
39363;BME280;25088;43.238;23.110;2022-07-05T01:18:41;96464.25;;;23.15;79.18
39363;BME280;25088;43.238;23.110;2022-07-05T01:21:12;96446.31;;;23.04;78.84
39363;BME280;25088;43.238;23.110;2022-07-05T01:23:39;96466.78;;;23.08;78.22
39363;BME280;25088;43.238;23.110;2022-07-05T01:26:06;96458.44;;;23.08;76.90
39363;BME280;25088;43.238;23.110;2022-07-05T01:28:32;96471.81;;;23.15;76.23
39363;BME280;25088;43.238;23.110;2022-07-05T01:31:00;96455.03;;;23.24;75.42
39363;BME280;25088;43.238;23.110;2022-07-05T01:33:30;96467.59;;;23.30;75.40
39363;BME280;25088;43.238;23.110;2022-07-05T01:35:57;96468.00;;;23.19;75.19
39363;BME280;25088;43.238;23.110;2022-07-05T01:38:23;96470.78;;;23.19;74.89
39363;BME280;25088;43.238;23.110;2022-07-05T01:40:49;96465.97;;;23.08;74.86
39363;BME280;25088;43.238;23.110;2022-07-05T01:43:18;96454.38;;;22.97;75.80
39363;BME280;25088;43.238;23.110;2022-07-05T01:45:48;96471.19;;;23.09;75.52
39363;BME280;25088;43.238;23.110;2022-07-05T01:48:16;96460.06;;;23.09;74.12
39363;BME280;25088;43.238;23.110;2022-07-05T01:50:52;96461.06;;;23.26;73.89
39363;BME280;25088;43.238;23.110;2022-07-05T01:53:23;96463.25;;;23.20;74.89
39363;BME280;25088;43.238;23.110;2022-07-05T01:55:50;96468.66;;;23.16;76.31
39363;BME280;25088;43.238;23.110;2022-07-05T01:58:16;96463.78;;;23.13;75.82
39363;BME280;25088;43.238;23.110;2022-07-05T02:00:46;96427.00;;;22.78;76.93
39363;BME280;25088;43.238;23.110;2022-07-05T02:03:12;96465.22;;;22.99;77.34
39363;BME280;25088;43.238;23.110;2022-07-05T02:05:39;96465.06;;;22.86;77.29
39363;BME280;25088;43.238;23.110;2022-07-05T02:08:05;96464.59;;;22.84;77.75
39363;BME280;25088;43.238;23.110;2022-07-05T02:10:30;96458.06;;;22.80;78.92
39363;BME280;25088;43.238;23.110;2022-07-05T02:12:56;96461.09;;;22.66;80.25
39363;BME280;25088;43.238;23.110;2022-07-05T02:15:21;96445.75;;;22.60;82.04
39363;BME280;25088;43.238;23.110;2022-07-05T02:17:47;96462.59;;;22.64;82.65
39363;BME280;25088;43.238;23.110;2022-07-05T02:20:12;96443.09;;;22.34;82.32
39363;BME280;25088;43.238;23.110;2022-07-05T02:22:38;96468.41;;;22.41;82.37
39363;BME280;25088;43.238;23.110;2022-07-05T02:25:03;96468.09;;;22.43;81.06
39363;BME280;25088;43.238;23.110;2022-07-05T02:27:29;96430.56;;;22.19;81.78
39363;BME280;25088;43.238;23.110;2022-07-05T02:29:55;96437.91;;;22.24;80.68
39363;BME280;25088;43.238;23.110;2022-07-05T02:32:20;96453.41;;;22.34;80.76
39363;BME280;25088;43.238;23.110;2022-07-05T02:34:45;96463.72;;;22.33;79.75
39363;BME280;25088;43.238;23.110;2022-07-05T02:37:11;96452.91;;;22.32;79.66
39363;BME280;25088;43.238;23.110;2022-07-05T02:39:36;96473.84;;;22.38;79.99
39363;BME280;25088;43.238;23.110;2022-07-05T02:42:02;96460.28;;;22.28;79.76
39363;BME280;25088;43.238;23.110;2022-07-05T02:44:28;96468.56;;;22.45;78.90
39363;BME280;25088;43.238;23.110;2022-07-05T02:46:53;96470.88;;;22.43;78.92
39363;BME280;25088;43.238;23.110;2022-07-05T02:49:19;96470.28;;;22.03;82.06
39363;BME280;25088;43.238;23.110;2022-07-05T02:51:44;96467.50;;;22.20;80.69
39363;BME280;25088;43.238;23.110;2022-07-05T02:54:10;96474.03;;;22.33;79.22
39363;BME280;25088;43.238;23.110;2022-07-05T02:56:35;96460.97;;;22.25;78.50
39363;BME280;25088;43.238;23.110;2022-07-05T02:59:01;96472.69;;;22.39;77.09
39363;BME280;25088;43.238;23.110;2022-07-05T03:01:26;96473.34;;;22.36;76.84
39363;BME280;25088;43.238;23.110;2022-07-05T03:03:52;96454.41;;;22.21;76.71
39363;BME280;25088;43.238;23.110;2022-07-05T03:06:17;96469.09;;;22.38;75.35
39363;BME280;25088;43.238;23.110;2022-07-05T03:08:43;96490.78;;;22.54;75.13
39363;BME280;25088;43.238;23.110;2022-07-05T03:11:08;96484.59;;;22.48;75.45
39363;BME280;25088;43.238;23.110;2022-07-05T03:13:34;96488.00;;;22.54;75.60
39363;BME280;25088;43.238;23.110;2022-07-05T03:15:59;96490.91;;;22.57;74.28
39363;BME280;25088;43.238;23.110;2022-07-05T03:18:25;96494.66;;;22.61;73.92
39363;BME280;25088;43.238;23.110;2022-07-05T03:20:50;96477.19;;;22.52;73.85
39363;BME280;25088;43.238;23.110;2022-07-05T03:23:16;96488.16;;;22.87;72.75
39363;BME280;25088;43.238;23.110;2022-07-05T03:25:41;96443.72;;;22.69;71.79
39363;BME280;25088;43.238;23.110;2022-07-05T03:28:07;96486.47;;;23.03;72.11
39363;BME280;25088;43.238;23.110;2022-07-05T03:30:32;96440.84;;;22.57;72.36
39363;BME280;25088;43.238;23.110;2022-07-05T03:32:58;96479.75;;;23.04;72.00
39363;BME280;25088;43.238;23.110;2022-07-05T03:35:23;96467.03;;;22.86;71.88
39363;BME280;25088;43.238;23.110;2022-07-05T03:37:49;96479.59;;;23.01;72.21
39363;BME280;25088;43.238;23.110;2022-07-05T03:40:14;96472.44;;;22.91;74.43
39363;BME280;25088;43.238;23.110;2022-07-05T03:42:40;96480.69;;;23.08;73.35
39363;BME280;25088;43.238;23.110;2022-07-05T03:45:05;96461.91;;;22.96;73.37
39363;BME280;25088;43.238;23.110;2022-07-05T03:47:31;96479.75;;;23.04;73.95
39363;BME280;25088;43.238;23.110;2022-07-05T03:49:56;96475.59;;;23.10;73.63
39363;BME280;25088;43.238;23.110;2022-07-05T03:52:22;96462.84;;;23.09;75.04
39363;BME280;25088;43.238;23.110;2022-07-05T03:54:47;96468.88;;;23.11;75.40
39363;BME280;25088;43.238;23.110;2022-07-05T03:57:13;96474.84;;;23.22;75.45
39363;BME280;25088;43.238;23.110;2022-07-05T03:59:39;96477.97;;;23.20;75.56
39363;BME280;25088;43.238;23.110;2022-07-05T04:02:05;96468.81;;;23.20;75.43
39363;BME280;25088;43.238;23.110;2022-07-05T04:04:31;96483.00;;;23.27;75.22
39363;BME280;25088;43.238;23.110;2022-07-05T04:06:56;96472.97;;;23.35;75.67
39363;BME280;25088;43.238;23.110;2022-07-05T04:09:22;96486.78;;;23.52;76.58
39363;BME280;25088;43.238;23.110;2022-07-05T04:11:47;96485.25;;;23.55;77.54
39363;BME280;25088;43.238;23.110;2022-07-05T04:14:13;96465.97;;;23.50;77.43
39363;BME280;25088;43.238;23.110;2022-07-05T04:16:38;96479.09;;;23.70;77.37
39363;BME280;25088;43.238;23.110;2022-07-05T04:19:03;96481.09;;;23.82;76.42
39363;BME280;25088;43.238;23.110;2022-07-05T04:21:29;96475.94;;;23.92;75.76
39363;BME280;25088;43.238;23.110;2022-07-05T04:23:55;96477.38;;;24.11;74.58
39363;BME280;25088;43.238;23.110;2022-07-05T04:26:20;96476.94;;;24.21;74.75
39363;BME280;25088;43.238;23.110;2022-07-05T04:28:46;96475.75;;;24.43;74.27
39363;BME280;25088;43.238;23.110;2022-07-05T04:31:11;96475.75;;;24.55;73.88
39363;BME280;25088;43.238;23.110;2022-07-05T04:33:37;96479.81;;;24.70;74.21
39363;BME280;25088;43.238;23.110;2022-07-05T04:36:03;96476.00;;;24.99;73.54
39363;BME280;25088;43.238;23.110;2022-07-05T04:38:28;96459.47;;;24.94;73.38
39363;BME280;25088;43.238;23.110;2022-07-05T04:40:54;96483.69;;;25.14;73.03
39363;BME280;25088;43.238;23.110;2022-07-05T04:43:20;96473.66;;;25.25;73.27
39363;BME280;25088;43.238;23.110;2022-07-05T04:45:45;96482.78;;;25.50;71.10
39363;BME280;25088;43.238;23.110;2022-07-05T04:48:11;96490.06;;;25.80;69.68
39363;BME280;25088;43.238;23.110;2022-07-05T04:50:36;96488.03;;;25.92;69.53
39363;BME280;25088;43.238;23.110;2022-07-05T04:53:02;96491.16;;;26.03;69.78
39363;BME280;25088;43.238;23.110;2022-07-05T04:55:27;96490.72;;;26.17;71.71
39363;BME280;25088;43.238;23.110;2022-07-05T04:57:53;96496.28;;;26.45;69.29
39363;BME280;25088;43.238;23.110;2022-07-05T05:00:18;96496.28;;;26.45;67.91
39363;BME280;25088;43.238;23.110;2022-07-05T05:02:43;96498.56;;;26.55;69.97
39363;BME280;25088;43.238;23.110;2022-07-05T05:05:09;96503.81;;;26.72;69.25
39363;BME280;25088;43.238;23.110;2022-07-05T05:07:35;96468.94;;;26.54;69.16
39363;BME280;25088;43.238;23.110;2022-07-05T05:10:04;96503.53;;;26.93;67.04
39363;BME280;25088;43.238;23.110;2022-07-05T05:12:29;96489.00;;;26.88;66.49
39363;BME280;25088;43.238;23.110;2022-07-05T05:14:55;96495.59;;;26.95;68.53
39363;BME280;25088;43.238;23.110;2022-07-05T05:17:20;96452.63;;;26.56;69.48
39363;BME280;25088;43.238;23.110;2022-07-05T05:19:46;96504.16;;;27.02;66.78
39363;BME280;25088;43.238;23.110;2022-07-05T05:22:12;96484.56;;;26.87;65.83
39363;BME280;25088;43.238;23.110;2022-07-05T05:24:37;96477.09;;;26.91;66.57
39363;BME280;25088;43.238;23.110;2022-07-05T05:27:03;96492.81;;;27.11;63.99
39363;BME280;25088;43.238;23.110;2022-07-05T05:29:28;96481.84;;;27.22;63.80
39363;BME280;25088;43.238;23.110;2022-07-05T05:31:54;96502.09;;;27.31;62.52
39363;BME280;25088;43.238;23.110;2022-07-05T05:34:20;96498.22;;;27.55;62.20
39363;BME280;25088;43.238;23.110;2022-07-05T05:36:45;96482.78;;;27.65;61.72
39363;BME280;25088;43.238;23.110;2022-07-05T05:39:13;96500.19;;;27.54;62.37
39363;BME280;25088;43.238;23.110;2022-07-05T05:41:38;96499.91;;;27.60;62.33
39363;BME280;25088;43.238;23.110;2022-07-05T05:44:04;96490.91;;;27.70;60.92
39363;BME280;25088;43.238;23.110;2022-07-05T05:46:29;96506.88;;;28.04;59.87
39363;BME280;25088;43.238;23.110;2022-07-05T05:48:55;96501.56;;;27.99;58.55
39363;BME280;25088;43.238;23.110;2022-07-05T05:51:21;96501.22;;;28.01;59.17
39363;BME280;25088;43.238;23.110;2022-07-05T05:53:46;96498.63;;;28.12;58.11
39363;BME280;25088;43.238;23.110;2022-07-05T05:56:12;96503.41;;;28.30;57.51
39363;BME280;25088;43.238;23.110;2022-07-05T05:58:38;96507.34;;;28.06;59.08
39363;BME280;25088;43.238;23.110;2022-07-05T06:01:04;96507.56;;;28.37;57.34
39363;BME280;25088;43.238;23.110;2022-07-05T06:03:29;96517.47;;;28.50;55.46
39363;BME280;25088;43.238;23.110;2022-07-05T06:05:55;96501.75;;;28.29;55.30
39363;BME280;25088;43.238;23.110;2022-07-05T06:08:21;96520.06;;;28.62;55.18
39363;BME280;25088;43.238;23.110;2022-07-05T06:10:46;96526.97;;;28.65;53.68
39363;BME280;25088;43.238;23.110;2022-07-05T06:13:13;96510.09;;;28.65;53.51
39363;BME280;25088;43.238;23.110;2022-07-05T06:15:40;96501.38;;;28.70;54.61
39363;BME280;25088;43.238;23.110;2022-07-05T06:18:10;96494.41;;;28.87;54.76
39363;BME280;25088;43.238;23.110;2022-07-05T06:20:37;96496.19;;;28.95;55.37
39363;BME280;25088;43.238;23.110;2022-07-05T06:23:04;96516.63;;;29.18;57.30
39363;BME280;25088;43.238;23.110;2022-07-05T06:25:31;96527.25;;;29.28;55.76
39363;BME280;25088;43.238;23.110;2022-07-05T06:28:00;96514.63;;;29.19;55.83
39363;BME280;25088;43.238;23.110;2022-07-05T06:30:28;96520.44;;;29.29;56.48
39363;BME280;25088;43.238;23.110;2022-07-05T06:32:54;96520.81;;;29.28;55.02
39363;BME280;25088;43.238;23.110;2022-07-05T06:35:21;96525.75;;;29.34;54.90
39363;BME280;25088;43.238;23.110;2022-07-05T06:40:24;96524.78;;;29.76;53.65
39363;BME280;25088;43.238;23.110;2022-07-05T06:42:55;96522.63;;;29.96;53.97
39363;BME280;25088;43.238;23.110;2022-07-05T06:45:21;96525.03;;;29.98;53.98
39363;BME280;25088;43.238;23.110;2022-07-05T06:47:57;96526.78;;;30.06;52.63
39363;BME280;25088;43.238;23.110;2022-07-05T06:50:24;96519.81;;;30.26;53.31
39363;BME280;25088;43.238;23.110;2022-07-05T06:52:49;96530.66;;;30.61;52.78
39363;BME280;25088;43.238;23.110;2022-07-05T06:55:15;96496.78;;;30.58;51.92
39363;BME280;25088;43.238;23.110;2022-07-05T06:57:40;96490.03;;;30.66;51.68
39363;BME280;25088;43.238;23.110;2022-07-05T07:00:06;96524.91;;;31.32;50.46
39363;BME280;25088;43.238;23.110;2022-07-05T07:02:32;96510.91;;;31.43;49.67
39363;BME280;25088;43.238;23.110;2022-07-05T07:04:57;96515.88;;;31.71;49.31
39363;BME280;25088;43.238;23.110;2022-07-05T07:07:23;96523.78;;;32.10;47.20
39363;BME280;25088;43.238;23.110;2022-07-05T07:10:07;96499.75;;;32.55;46.57
39363;BME280;25088;43.238;23.110;2022-07-05T07:12:33;96509.47;;;32.76;47.00
39363;BME280;25088;43.238;23.110;2022-07-05T07:14:58;96531.38;;;33.04;46.37
39363;BME280;25088;43.238;23.110;2022-07-05T07:17:24;96515.19;;;33.15;46.83
39363;BME280;25088;43.238;23.110;2022-07-05T07:19:50;96525.31;;;33.09;45.91
39363;BME280;25088;43.238;23.110;2022-07-05T07:22:17;96512.78;;;33.17;46.25
39363;BME280;25088;43.238;23.110;2022-07-05T07:24:43;96536.19;;;33.07;45.49
39363;BME280;25088;43.238;23.110;2022-07-05T07:27:09;96505.91;;;33.04;46.40
39363;BME280;25088;43.238;23.110;2022-07-05T07:29:37;96537.84;;;33.43;45.51
39363;BME280;25088;43.238;23.110;2022-07-05T07:32:04;96522.41;;;33.80;45.25
39363;BME280;25088;43.238;23.110;2022-07-05T07:34:31;96513.56;;;33.67;45.39
39363;BME280;25088;43.238;23.110;2022-07-05T07:36:57;96513.41;;;34.21;44.79
39363;BME280;25088;43.238;23.110;2022-07-05T07:39:23;96507.84;;;34.00;45.03
39363;BME280;25088;43.238;23.110;2022-07-05T07:41:49;96508.09;;;34.30;44.45
39363;BME280;25088;43.238;23.110;2022-07-05T07:44:15;96492.59;;;34.60;43.40
39363;BME280;25088;43.238;23.110;2022-07-05T07:46:42;96493.88;;;35.11;43.57
39363;BME280;25088;43.238;23.110;2022-07-05T07:49:08;96509.63;;;35.15;43.73
39363;BME280;25088;43.238;23.110;2022-07-05T07:51:34;96495.00;;;35.20;43.20
39363;BME280;25088;43.238;23.110;2022-07-05T07:53:59;96515.81;;;35.55;42.17
39363;BME280;25088;43.238;23.110;2022-07-05T07:56:25;96507.88;;;35.77;41.23
39363;BME280;25088;43.238;23.110;2022-07-05T07:58:51;96490.38;;;35.82;40.97
39363;BME280;25088;43.238;23.110;2022-07-05T08:01:17;96511.50;;;36.19;40.46
39363;BME280;25088;43.238;23.110;2022-07-05T08:03:43;96499.66;;;36.55;38.82
39363;BME280;25088;43.238;23.110;2022-07-05T08:06:10;96502.59;;;36.17;40.11
39363;BME280;25088;43.238;23.110;2022-07-05T08:08:38;96506.19;;;36.21;40.47
39363;BME280;25088;43.238;23.110;2022-07-05T08:11:04;96490.72;;;36.26;40.87
39363;BME280;25088;43.238;23.110;2022-07-05T08:13:30;96501.38;;;36.48;40.69
39363;BME280;25088;43.238;23.110;2022-07-05T08:15:57;96500.81;;;36.91;39.76
39363;BME280;25088;43.238;23.110;2022-07-05T08:18:23;96492.28;;;36.61;39.52
39363;BME280;25088;43.238;23.110;2022-07-05T08:21:07;96503.44;;;37.29;38.71
39363;BME280;25088;43.238;23.110;2022-07-05T08:23:51;96496.84;;;37.36;38.07
39363;BME280;25088;43.238;23.110;2022-07-05T08:26:17;96495.69;;;37.30;37.93
39363;BME280;25088;43.238;23.110;2022-07-05T08:28:42;96515.81;;;37.19;38.42
39363;BME280;25088;43.238;23.110;2022-07-05T08:31:08;96503.22;;;37.43;38.48
39363;BME280;25088;43.238;23.110;2022-07-05T08:33:33;96496.94;;;37.29;37.46
39363;BME280;25088;43.238;23.110;2022-07-05T08:35:59;96500.16;;;37.77;38.20
39363;BME280;25088;43.238;23.110;2022-07-05T08:38:25;96509.25;;;37.22;37.48
39363;BME280;25088;43.238;23.110;2022-07-05T08:40:53;96504.16;;;37.10;38.46
39363;BME280;25088;43.238;23.110;2022-07-05T08:43:22;96504.47;;;37.66;37.00
39363;BME280;25088;43.238;23.110;2022-07-05T08:45:49;96504.25;;;38.00;36.28
39363;BME280;25088;43.238;23.110;2022-07-05T08:48:16;96503.81;;;38.01;36.92
39363;BME280;25088;43.238;23.110;2022-07-05T08:50:43;96473.75;;;38.17;36.13
39363;BME280;25088;43.238;23.110;2022-07-05T08:53:09;96505.19;;;38.53;35.85
39363;BME280;25088;43.238;23.110;2022-07-05T08:55:35;96492.03;;;38.95;35.58
39363;BME280;25088;43.238;23.110;2022-07-05T08:58:01;96494.34;;;38.84;36.38
39363;BME280;25088;43.238;23.110;2022-07-05T09:00:27;96488.72;;;39.13;35.33
39363;BME280;25088;43.238;23.110;2022-07-05T09:02:53;96501.63;;;39.21;35.27
39363;BME280;25088;43.238;23.110;2022-07-05T09:05:19;96486.72;;;39.30;33.48
39363;BME280;25088;43.238;23.110;2022-07-05T09:08:01;96475.50;;;39.85;33.38
39363;BME280;25088;43.238;23.110;2022-07-05T09:10:29;96491.72;;;40.04;31.66
39363;BME280;25088;43.238;23.110;2022-07-05T09:12:56;96487.22;;;40.03;32.49
39363;BME280;25088;43.238;23.110;2022-07-05T09:15:23;96485.78;;;39.82;32.57
39363;BME280;25088;43.238;23.110;2022-07-05T09:17:49;96496.22;;;39.89;32.66
39363;BME280;25088;43.238;23.110;2022-07-05T09:20:16;96489.00;;;39.84;32.64
39363;BME280;25088;43.238;23.110;2022-07-05T09:22:52;96477.09;;;40.44;33.50
39363;BME280;25088;43.238;23.110;2022-07-05T09:25:26;96481.97;;;40.01;33.72
39363;BME280;25088;43.238;23.110;2022-07-05T09:28:04;96477.75;;;38.95;34.78
39363;BME280;25088;43.238;23.110;2022-07-05T09:30:36;96472.22;;;40.15;32.85
39363;BME280;25088;43.238;23.110;2022-07-05T09:33:08;96484.25;;;40.77;33.70
39363;BME280;25088;43.238;23.110;2022-07-05T09:35:39;96476.81;;;40.93;32.33
39363;BME280;25088;43.238;23.110;2022-07-05T09:38:05;96477.84;;;40.73;33.14
39363;BME280;25088;43.238;23.110;2022-07-05T09:40:32;96464.22;;;41.16;32.74
39363;BME280;25088;43.238;23.110;2022-07-05T09:43:15;96471.75;;;41.35;32.03
39363;BME280;25088;43.238;23.110;2022-07-05T09:46:00;96465.38;;;41.05;32.39
39363;BME280;25088;43.238;23.110;2022-07-05T09:48:28;96455.97;;;40.92;32.64
39363;BME280;25088;43.238;23.110;2022-07-05T09:51:08;96446.81;;;40.72;34.48
39363;BME280;25088;43.238;23.110;2022-07-05T09:53:48;96434.75;;;40.39;34.12
39363;BME280;25088;43.238;23.110;2022-07-05T09:56:15;96456.09;;;40.76;33.98
39363;BME280;25088;43.238;23.110;2022-07-05T09:58:41;96428.63;;;40.11;33.79
39363;BME280;25088;43.238;23.110;2022-07-05T10:01:28;96449.25;;;39.73;34.35
39363;BME280;25088;43.238;23.110;2022-07-05T10:04:04;96444.63;;;39.79;35.05
39363;BME280;25088;43.238;23.110;2022-07-05T10:06:32;96432.22;;;39.99;34.20
39363;BME280;25088;43.238;23.110;2022-07-05T10:08:58;96444.50;;;39.83;34.25
39363;BME280;25088;43.238;23.110;2022-07-05T10:11:24;96435.50;;;40.68;32.66
39363;BME280;25088;43.238;23.110;2022-07-05T10:13:52;96433.97;;;40.76;32.68
39363;BME280;25088;43.238;23.110;2022-07-05T10:16:20;96431.56;;;40.88;32.49
39363;BME280;25088;43.238;23.110;2022-07-05T10:18:47;96446.22;;;41.28;31.90
39363;BME280;25088;43.238;23.110;2022-07-05T10:21:16;96438.13;;;40.88;33.51
39363;BME280;25088;43.238;23.110;2022-07-05T10:23:48;96438.72;;;41.56;32.15
39363;BME280;25088;43.238;23.110;2022-07-05T10:26:15;96441.84;;;41.49;32.70
39363;BME280;25088;43.238;23.110;2022-07-05T10:28:44;96439.72;;;40.89;33.28
39363;BME280;25088;43.238;23.110;2022-07-05T10:31:12;96440.88;;;40.79;33.63
39363;BME280;25088;43.238;23.110;2022-07-05T10:33:38;96432.41;;;40.88;33.84
39363;BME280;25088;43.238;23.110;2022-07-05T10:36:04;96409.44;;;40.24;35.20
39363;BME280;25088;43.238;23.110;2022-07-05T10:38:37;96408.00;;;40.03;35.47
39363;BME280;25088;43.238;23.110;2022-07-05T10:41:05;96421.75;;;40.63;34.32
39363;BME280;25088;43.238;23.110;2022-07-05T10:43:32;96425.47;;;40.47;34.53
39363;BME280;25088;43.238;23.110;2022-07-05T10:45:58;96423.75;;;40.50;33.82
39363;BME280;25088;43.238;23.110;2022-07-05T10:48:25;96421.81;;;40.47;34.04
39363;BME280;25088;43.238;23.110;2022-07-05T10:56:12;96408.44;;;41.68;32.12
39363;BME280;25088;43.238;23.110;2022-07-05T10:58:45;96397.16;;;42.70;30.96
39363;BME280;25088;43.238;23.110;2022-07-05T11:03:52;96403.22;;;41.97;32.92
39363;BME280;25088;43.238;23.110;2022-07-05T11:06:25;96393.44;;;42.07;31.82
39363;BME280;25088;43.238;23.110;2022-07-05T11:11:26;96389.44;;;42.05;31.75
39363;BME280;25088;43.238;23.110;2022-07-05T11:13:51;96397.31;;;41.57;32.45
39363;BME280;25088;43.238;23.110;2022-07-05T11:16:25;96402.63;;;40.98;33.34
39363;BME280;25088;43.238;23.110;2022-07-05T11:18:53;96393.41;;;40.27;34.11
39363;BME280;25088;43.238;23.110;2022-07-05T11:21:20;96394.47;;;40.46;34.32
39363;BME280;25088;43.238;23.110;2022-07-05T11:23:46;96393.25;;;41.45;32.65
39363;BME280;25088;43.238;23.110;2022-07-05T11:26:13;96385.41;;;41.58;31.57
39363;BME280;25088;43.238;23.110;2022-07-05T11:28:46;96367.63;;;41.86;31.52
39363;BME280;25088;43.238;23.110;2022-07-05T11:31:47;96377.69;;;43.15;29.73
39363;BME280;25088;43.238;23.110;2022-07-05T11:34:13;96374.25;;;43.47;29.15
39363;BME280;25088;43.238;23.110;2022-07-05T11:36:39;96357.38;;;43.00;27.99
39363;BME280;25088;43.238;23.110;2022-07-05T11:39:15;96363.97;;;43.09;28.28
39363;BME280;25088;43.238;23.110;2022-07-05T11:41:44;96371.41;;;43.47;27.63
39363;BME280;25088;43.238;23.110;2022-07-05T11:44:10;96363.81;;;42.64;28.84
39363;BME280;25088;43.238;23.110;2022-07-05T11:46:36;96364.50;;;43.91;28.64
39363;BME280;25088;43.238;23.110;2022-07-05T11:49:02;96361.97;;;43.83;27.65
39363;BME280;25088;43.238;23.110;2022-07-05T11:51:28;96352.06;;;42.80;28.13
39363;BME280;25088;43.238;23.110;2022-07-05T11:53:54;96329.97;;;43.26;28.65
39363;BME280;25088;43.238;23.110;2022-07-05T11:56:19;96347.41;;;43.50;28.35
39363;BME280;25088;43.238;23.110;2022-07-05T11:58:45;96320.88;;;43.09;29.00
39363;BME280;25088;43.238;23.110;2022-07-05T12:01:10;96336.16;;;42.97;28.49
39363;BME280;25088;43.238;23.110;2022-07-05T12:03:36;96328.59;;;43.68;27.88
39363;BME280;25088;43.238;23.110;2022-07-05T12:06:11;96329.06;;;43.57;27.82
39363;BME280;25088;43.238;23.110;2022-07-05T12:08:37;96317.78;;;44.14;27.54
39363;BME280;25088;43.238;23.110;2022-07-05T12:11:02;96328.50;;;44.14;27.01
39363;BME280;25088;43.238;23.110;2022-07-05T12:13:48;96319.13;;;43.30;27.86
39363;BME280;25088;43.238;23.110;2022-07-05T12:16:14;96323.63;;;43.77;27.42
39363;BME280;25088;43.238;23.110;2022-07-05T12:18:47;96310.81;;;43.78;27.95
39363;BME280;25088;43.238;23.110;2022-07-05T12:21:13;96323.78;;;43.65;27.34
39363;BME280;25088;43.238;23.110;2022-07-05T12:23:42;96313.06;;;43.56;26.87
39363;BME280;25088;43.238;23.110;2022-07-05T12:26:09;96298.88;;;43.62;27.07
39363;BME280;25088;43.238;23.110;2022-07-05T12:28:35;96306.72;;;43.52;27.69
39363;BME280;25088;43.238;23.110;2022-07-05T12:31:20;96306.53;;;43.46;26.48
39363;BME280;25088;43.238;23.110;2022-07-05T12:33:47;96295.13;;;42.88;27.22
39363;BME280;25088;43.238;23.110;2022-07-05T12:36:14;96307.97;;;43.32;26.44
39363;BME280;25088;43.238;23.110;2022-07-05T12:38:40;96308.91;;;43.94;26.25
39363;BME280;25088;43.238;23.110;2022-07-05T12:41:06;96295.69;;;43.59;26.05
39363;BME280;25088;43.238;23.110;2022-07-05T12:43:32;96311.00;;;43.38;26.33
39363;BME280;25088;43.238;23.110;2022-07-05T12:46:06;96303.66;;;43.37;26.76
39363;BME280;25088;43.238;23.110;2022-07-05T12:48:36;96268.53;;;43.24;27.42
39363;BME280;25088;43.238;23.110;2022-07-05T12:51:03;96296.19;;;42.22;28.23
39363;BME280;25088;43.238;23.110;2022-07-05T12:53:29;96299.41;;;41.02;29.72
39363;BME280;25088;43.238;23.110;2022-07-05T12:56:13;96281.75;;;40.56;30.96
39363;BME280;25088;43.238;23.110;2022-07-05T12:59:03;96297.06;;;40.11;31.75
39363;BME280;25088;43.238;23.110;2022-07-05T13:01:37;96297.81;;;39.44;32.53
39363;BME280;25088;43.238;23.110;2022-07-05T13:04:14;96285.59;;;39.44;36.71